Time;durP1;ratioP1;P1;durP2;ratioP2;P2;SDS_P1;SDS_P2;PMS_P1;PMS_P2;Temp;Humidity;BMP_temperature;BMP_pressure;BME280_temperature;BME280_humidity;BME280_pressure;Samples;Min_cycle;Max_cycle;Signal;HPM_P1;HPM_P2
2022/11/02 00:01:28;;;;;;;4.57;1.73;;;13.60;99.90;;;;;;5035824;28;20231;-87
2022/11/02 00:03:55;;;;;;;5.77;1.67;;;13.60;99.90;;;;;;5036028;28;20214;-87
2022/11/02 00:06:22;;;;;;;5.07;1.23;;;13.60;99.90;;;;;;5034820;28;20209;-87
2022/11/02 00:08:50;;;;;;;4.60;1.60;;;13.50;99.90;;;;;;5036093;28;20191;-87
2022/11/02 00:11:16;;;;;;;5.87;1.47;;;13.40;99.90;;;;;;5035602;28;20221;-87
2022/11/02 00:13:46;;;;;;;2.63;1.30;;;13.40;99.90;;;;;;5035947;28;20210;-87
2022/11/02 00:16:15;;;;;;;8.87;1.53;;;13.40;99.90;;;;;;5035558;28;20234;-87
2022/11/02 00:18:46;;;;;;;2.43;1.20;;;13.50;99.90;;;;;;5035360;28;20218;-87
2022/11/02 00:21:15;;;;;;;4.53;1.60;;;13.50;99.90;;;;;;5035323;28;20316;-87
2022/11/02 00:23:42;;;;;;;6.00;2.00;;;13.50;99.90;;;;;;5035440;28;20217;-88
2022/11/02 00:26:11;;;;;;;6.23;1.23;;;13.40;99.90;;;;;;5035185;28;20571;-87
2022/11/02 00:28:39;;;;;;;5.57;1.60;;;13.40;99.90;;;;;;5035679;28;20217;-86
2022/11/02 00:31:08;;;;;;;3.27;1.50;;;13.40;99.90;;;;;;5035283;28;20662;-88
2022/11/02 00:33:37;;;;;;;5.30;1.87;;;13.30;99.90;;;;;;5035637;28;20194;-88
2022/11/02 00:36:06;;;;;;;3.03;1.57;;;13.30;99.90;;;;;;5035350;28;20228;-88
2022/11/02 00:38:35;;;;;;;8.00;1.80;;;13.30;99.90;;;;;;5034941;28;20709;-88
2022/11/02 00:41:04;;;;;;;8.20;1.80;;;13.30;99.90;;;;;;5035036;28;20237;-87
2022/11/02 00:43:30;;;;;;;7.60;1.70;;;13.20;99.90;;;;;;5034997;28;20567;-88
2022/11/02 00:46:03;;;;;;;4.83;1.60;;;13.20;99.90;;;;;;5035539;28;20195;-87
2022/11/02 00:48:30;;;;;;;3.10;1.10;;;13.20;99.90;;;;;;5035372;28;20194;-88
2022/11/02 00:50:57;;;;;;;4.73;1.63;;;13.20;99.90;;;;;;5017796;28;20195;-87
2022/11/02 00:53:25;;;;;;;5.83;1.37;;;13.20;99.90;;;;;;5034658;28;20221;-88
2022/11/02 00:55:53;;;;;;;5.20;1.77;;;13.20;99.90;;;;;;5034961;28;20214;-88
2022/11/02 00:58:26;;;;;;;7.90;1.80;;;13.20;99.90;;;;;;5035275;28;20210;-87
2022/11/02 01:00:56;;;;;;;7.07;1.70;;;13.20;99.90;;;;;;5034932;28;20244;-88
2022/11/02 01:03:24;;;;;;;8.10;2.03;;;13.20;99.90;;;;;;5034937;28;20602;-89
2022/11/02 01:05:51;;;;;;;9.40;2.00;;;13.10;99.90;;;;;;5035166;28;20569;-89
2022/11/02 01:08:17;;;;;;;4.37;1.63;;;13.20;99.90;;;;;;5034647;28;20194;-89
2022/11/02 01:10:49;;;;;;;5.90;1.40;;;13.20;99.90;;;;;;5034920;28;20213;-89
2022/11/02 01:13:16;;;;;;;10.83;2.03;;;13.20;99.90;;;;;;5034879;28;20229;-88
2022/11/02 01:15:43;;;;;;;5.30;1.90;;;13.20;99.90;;;;;;5034523;28;20206;-89
2022/11/02 01:18:10;;;;;;;8.00;2.17;;;13.20;99.90;;;;;;5033912;28;20250;-88
2022/11/02 01:20:36;;;;;;;6.80;2.03;;;13.20;99.90;;;;;;5034777;28;20245;-88
2022/11/02 01:23:05;;;;;;;8.40;2.27;;;13.20;99.90;;;;;;5034251;28;20206;-88
2022/11/02 01:25:32;;;;;;;7.70;1.83;;;13.20;99.90;;;;;;5034495;28;20202;-87
2022/11/02 01:28:02;;;;;;;11.60;1.80;;;13.20;99.90;;;;;;5034628;28;20205;-89
2022/11/02 01:30:29;;;;;;;8.27;1.70;;;13.20;99.90;;;;;;5034602;28;20194;-88
2022/11/02 01:32:56;;;;;;;10.97;2.20;;;13.20;99.90;;;;;;5034526;28;20206;-88
2022/11/02 01:35:23;;;;;;;10.43;2.30;;;13.10;99.90;;;;;;5034415;28;20201;-88
2022/11/02 01:37:50;;;;;;;5.63;1.83;;;13.20;99.90;;;;;;5034060;28;20190;-89
2022/11/02 01:40:17;;;;;;;7.13;1.90;;;13.10;99.90;;;;;;5034096;28;20201;-89
2022/11/02 01:42:45;;;;;;;7.60;1.83;;;13.10;99.90;;;;;;5033892;28;20213;-89
2022/11/02 01:45:14;;;;;;;7.63;2.43;;;13.10;99.90;;;;;;5033990;28;20195;-89
2022/11/02 01:47:45;;;;;;;9.23;1.87;;;13.10;99.90;;;;;;5034410;28;20214;-88
2022/11/02 01:50:16;;;;;;;11.23;2.40;;;13.10;99.90;;;;;;5034321;28;20210;-89
2022/11/02 01:52:46;;;;;;;11.87;2.33;;;13.10;99.90;;;;;;5033851;28;20198;-89
2022/11/02 01:55:18;;;;;;;10.57;2.27;;;13.10;99.90;;;;;;5033830;28;20563;-89
2022/11/02 01:57:48;;;;;;;8.90;1.93;;;13.20;99.90;;;;;;5031136;28;20206;-88
2022/11/02 02:00:18;;;;;;;9.07;2.13;;;13.30;99.90;;;;;;5019728;28;20293;-89
2022/11/02 02:02:52;;;;;;;9.17;1.83;;;13.20;99.90;;;;;;5033570;28;20732;-89
2022/11/02 02:05:24;;;;;;;11.00;3.03;;;13.10;99.90;;;;;;5032381;28;20427;-88
2022/11/02 02:07:52;;;;;;;10.47;2.17;;;13.10;99.90;;;;;;5033269;28;20207;-88
2022/11/02 02:10:19;;;;;;;10.53;2.57;;;13.10;99.90;;;;;;5025000;28;20554;-89
2022/11/02 02:12:48;;;;;;;7.57;2.13;;;13.10;99.90;;;;;;5033636;28;20202;-88
2022/11/02 02:15:15;;;;;;;12.93;2.97;;;13.10;99.90;;;;;;5033573;28;20238;-89
2022/11/02 02:17:49;;;;;;;11.97;2.30;;;13.00;99.90;;;;;;5033250;28;20230;-89
2022/11/02 02:20:37;;;;;;;7.87;2.53;;;12.90;99.90;;;;;;5033021;28;20212;-87
2022/11/02 02:23:39;;;;;;;9.20;2.10;;;12.90;99.90;;;;;;5033695;28;20212;-88
2022/11/02 02:26:31;;;;;;;12.50;2.70;;;12.80;99.90;;;;;;5033286;28;20606;-89
2022/11/02 02:29:12;;;;;;;9.53;2.20;;;12.80;99.90;;;;;;5032769;28;20678;-88
2022/11/02 02:31:52;;;;;;;13.33;2.60;;;12.80;99.90;;;;;;5033247;28;20217;-90
2022/11/02 02:34:22;;;;;;;8.97;1.90;;;12.80;99.90;;;;;;5033163;28;20202;-90
2022/11/02 02:36:52;;;;;;;12.30;2.43;;;12.80;99.90;;;;;;5033272;28;20202;-88
2022/11/02 02:39:26;;;;;;;9.57;2.40;;;12.80;99.90;;;;;;5033133;28;20203;-89
2022/11/02 02:41:58;;;;;;;12.13;2.17;;;12.80;99.90;;;;;;5033099;28;20240;-87
2022/11/02 02:44:33;;;;;;;11.33;2.23;;;12.70;99.90;;;;;;5029459;28;20676;-88
2022/11/02 02:47:04;;;;;;;13.43;2.33;;;12.80;99.90;;;;;;5024737;28;20219;-88
2022/11/02 02:49:37;;;;;;;8.67;2.23;;;12.80;99.90;;;;;;5028845;28;20205;-88
2022/11/02 02:52:06;;;;;;;9.27;2.17;;;12.70;99.90;;;;;;5028578;28;20233;-89
2022/11/02 02:54:36;;;;;;;11.63;2.27;;;12.70;99.90;;;;;;5032884;28;20198;-89
2022/11/02 02:57:07;;;;;;;13.53;2.90;;;12.70;99.90;;;;;;5033135;28;20211;-88
2022/11/02 02:59:40;;;;;;;7.43;2.17;;;12.70;99.90;;;;;;5033205;28;20264;-89
2022/11/02 03:02:18;;;;;;;8.30;2.37;;;12.60;99.90;;;;;;5032597;28;20300;-88
2022/11/02 03:04:47;;;;;;;14.90;2.73;;;12.60;99.90;;;;;;5029487;28;20214;-88
2022/11/02 03:07:20;;;;;;;8.53;2.13;;;12.60;99.90;;;;;;5025692;28;20205;-88
2022/11/02 03:09:52;;;;;;;10.43;2.23;;;12.60;99.90;;;;;;5026960;28;20209;-89
2022/11/02 03:12:28;;;;;;;11.30;2.53;;;12.60;99.90;;;;;;5024831;28;20200;-88
2022/11/02 03:15:10;;;;;;;8.57;2.20;;;12.60;99.90;;;;;;5028909;28;20210;-89
2022/11/02 03:17:47;;;;;;;12.00;2.87;;;12.60;99.90;;;;;;5032435;28;20230;-89
2022/11/02 03:20:25;;;;;;;10.20;2.10;;;12.60;99.90;;;;;;5032779;28;20262;-89
2022/11/02 03:23:00;;;;;;;9.20;2.90;;;12.60;99.90;;;;;;5032338;28;20245;-89
2022/11/02 03:25:31;;;;;;;9.83;2.40;;;12.50;99.90;;;;;;5033013;28;20576;-90
2022/11/02 03:28:05;;;;;;;11.40;2.60;;;12.50;99.90;;;;;;5032654;28;20209;-89
2022/11/02 03:30:40;;;;;;;8.70;2.23;;;12.50;99.90;;;;;;5033127;28;20204;-89
2022/11/02 03:33:09;;;;;;;10.93;2.30;;;12.50;99.90;;;;;;5032375;28;20201;-87
2022/11/02 03:35:41;;;;;;;11.50;2.50;;;12.50;99.90;;;;;;5032913;28;20210;-87
2022/11/02 03:38:12;;;;;;;6.57;2.27;;;12.50;99.90;;;;;;5032959;28;20236;-88
2022/11/02 03:40:43;;;;;;;7.60;2.10;;;12.50;99.90;;;;;;5033101;28;20644;-89
2022/11/02 03:43:11;;;;;;;9.57;2.40;;;12.50;99.90;;;;;;5036508;28;20210;-86
2022/11/02 03:45:43;;;;;;;8.80;2.60;;;12.50;99.90;;;;;;5036639;28;20206;-89
2022/11/02 03:48:12;;;;;;;8.47;2.07;;;12.40;99.90;;;;;;5035946;28;20236;-87
2022/11/02 03:50:45;;;;;;;9.30;2.27;;;12.40;99.90;;;;;;5036542;28;20197;-88
2022/11/02 03:53:21;;;;;;;9.17;2.40;;;12.40;99.90;;;;;;5036165;28;20220;-87
2022/11/02 03:55:50;;;;;;;11.37;2.30;;;12.40;99.90;;;;;;5036270;28;20233;-87
2022/11/02 03:58:17;;;;;;;12.87;2.50;;;12.40;99.90;;;;;;5036271;28;20209;-88
2022/11/02 04:00:52;;;;;;;8.87;2.73;;;12.40;99.90;;;;;;5036676;28;20200;-89
2022/11/02 04:03:20;;;;;;;14.27;2.73;;;12.40;99.90;;;;;;5035756;28;20644;-86
2022/11/02 04:05:47;;;;;;;9.37;2.90;;;12.40;99.90;;;;;;5036233;28;20204;-89
2022/11/02 04:08:23;;;;;;;13.80;3.93;;;12.40;99.90;;;;;;5037383;28;20196;-86
2022/11/02 04:16:21;;;;;;;14.07;2.80;;;12.40;99.90;;;;;;5036012;28;20703;-89
2022/11/02 04:21:32;;;;;;;12.13;2.47;;;12.40;99.90;;;;;;5036296;28;20360;-90
2022/11/02 04:26:44;;;;;;;13.27;2.63;;;12.30;99.90;;;;;;5035979;28;20208;-89
2022/11/02 04:29:11;;;;;;;11.07;2.20;;;12.30;99.90;;;;;;5036049;28;20197;-89
2022/11/02 04:31:39;;;;;;;10.57;2.80;;;12.40;99.90;;;;;;5035809;28;20216;-91
2022/11/02 04:34:05;;;;;;;8.60;2.07;;;12.30;99.90;;;;;;5036274;28;20209;-90
2022/11/02 04:36:32;;;;;;;14.47;2.73;;;12.30;99.90;;;;;;5035768;28;20205;-89
2022/11/02 04:38:58;;;;;;;13.70;2.23;;;12.20;99.90;;;;;;5036127;28;20209;-91
2022/11/02 04:41:44;;;;;;;7.23;2.03;;;12.20;99.90;;;;;;5035512;28;20240;-91
2022/11/02 04:44:12;;;;;;;13.25;3.67;;;12.20;99.90;;;;;;5034581;28;20438;-92
2022/11/02 04:46:41;;;;;;;16.57;2.90;;;12.30;99.90;;;;;;5035852;28;20564;-90
2022/11/02 04:49:09;;;;;;;9.23;2.23;;;12.30;99.90;;;;;;5035766;28;20557;-92
2022/11/02 04:51:36;;;;;;;14.13;2.50;;;12.20;99.90;;;;;;5036083;28;20206;-90
2022/11/02 04:54:03;;;;;;;13.03;2.50;;;12.20;99.90;;;;;;5035308;28;20200;-89
2022/11/02 04:56:31;;;;;;;9.27;2.30;;;12.20;99.90;;;;;;5035995;28;20213;-90
2022/11/02 04:58:59;;;;;;;14.20;3.43;;;12.10;99.90;;;;;;5035696;28;20219;-89
2022/11/02 05:01:28;;;;;;;10.40;2.53;;;12.10;99.90;;;;;;5035204;28;20232;-91
2022/11/02 05:03:57;;;;;;;14.13;2.40;;;12.00;99.90;;;;;;5035762;28;20203;-91
2022/11/02 05:06:25;;;;;;;12.43;2.17;;;11.90;99.90;;;;;;5035699;28;20209;-88
2022/11/02 05:08:52;;;;;;;13.53;2.83;;;11.90;99.90;;;;;;5035609;28;20201;-92
2022/11/02 05:11:19;;;;;;;13.20;2.47;;;11.90;99.90;;;;;;5035530;28;20212;-92
2022/11/02 05:13:46;;;;;;;10.17;2.20;;;11.90;99.90;;;;;;5035169;28;20209;-91
2022/11/02 05:16:14;;;;;;;16.17;2.60;;;11.80;99.90;;;;;;5035017;28;20234;-91
2022/11/02 05:18:42;;;;;;;8.67;2.30;;;11.80;99.90;;;;;;5035146;28;20683;-90
2022/11/02 05:21:12;;;;;;;9.23;2.30;;;11.80;99.90;;;;;;5035238;28;20208;-89
2022/11/02 05:23:39;;;;;;;9.23;1.97;;;11.80;99.90;;;;;;5034983;28;20215;-90
2022/11/02 05:26:09;;;;;;;13.43;2.50;;;11.80;99.90;;;;;;5034938;28;20207;-91
2022/11/02 05:28:36;;;;;;;5.10;1.93;;;11.70;99.90;;;;;;5034655;28;20207;-91
2022/11/02 05:31:04;;;;;;;8.07;2.40;;;11.70;99.90;;;;;;5035100;28;20613;-91
2022/11/02 05:33:31;;;;;;;8.80;1.77;;;11.60;99.90;;;;;;5035164;28;20212;-90
2022/11/02 05:35:59;;;;;;;11.73;2.53;;;11.70;99.90;;;;;;5034912;28;20545;-90
2022/11/02 05:38:28;;;;;;;11.03;2.67;;;11.70;99.90;;;;;;5034741;28;20208;-89
2022/11/02 05:40:55;;;;;;;10.93;2.20;;;11.60;99.90;;;;;;5034701;28;20291;-90
2022/11/02 05:43:23;;;;;;;12.37;2.60;;;11.80;99.90;;;;;;5034593;28;20240;-90
2022/11/02 05:45:54;;;;;;;10.20;2.47;;;11.60;99.90;;;;;;5034663;28;20200;-91
2022/11/02 05:48:21;;;;;;;9.73;3.07;;;11.70;99.90;;;;;;5034775;28;20189;-89
2022/11/02 05:50:48;;;;;;;12.47;2.50;;;11.60;99.90;;;;;;5035186;28;20200;-90
2022/11/02 05:53:15;;;;;;;14.80;2.90;;;11.60;99.90;;;;;;5035599;28;20216;-89
2022/11/02 05:55:44;;;;;;;15.37;2.90;;;11.60;99.90;;;;;;5035114;28;20192;-90
2022/11/02 05:58:13;;;;;;;9.63;2.90;;;11.60;99.90;;;;;;5034217;28;20197;-90
2022/11/02 06:00:40;;;;;;;14.83;2.33;;;11.50;99.90;;;;;;5032819;28;20215;-91
2022/11/02 06:03:07;;;;;;;10.60;2.83;;;11.40;99.90;;;;;;5034249;28;20231;-90
2022/11/02 06:05:34;;;;;;;10.40;2.37;;;11.30;99.90;;;;;;5034441;28;20658;-92
2022/11/02 06:08:01;;;;;;;20.33;3.03;;;11.40;99.90;;;;;;5034498;28;20231;-92
2022/11/02 06:10:29;;;;;;;10.17;2.87;;;11.30;99.90;;;;;;5033866;28;20210;-92
2022/11/02 06:13:00;;;;;;;13.80;2.80;;;11.20;99.90;;;;;;5034188;28;20208;-91
2022/11/02 06:15:27;;;;;;;11.93;2.43;;;11.20;99.90;;;;;;5033939;28;20204;-90
2022/11/02 06:17:54;;;;;;;17.77;4.05;;;11.10;99.90;;;;;;5033336;28;20435;-91
2022/11/02 06:20:21;;;;;;;13.93;2.97;;;11.20;99.90;;;;;;5033869;28;20208;-91
2022/11/02 06:22:49;;;;;;;13.73;2.83;;;11.20;99.90;;;;;;5033807;28;20228;-91
2022/11/02 06:25:16;;;;;;;10.10;2.20;;;11.30;99.90;;;;;;5033955;28;20772;-90
2022/11/02 06:27:51;;;;;;;12.37;3.03;;;11.20;99.90;;;;;;5034127;28;20208;-90
2022/11/02 06:30:20;;;;;;;11.43;2.67;;;11.20;99.90;;;;;;5034151;28;20204;-90
2022/11/02 06:32:47;;;;;;;10.17;2.60;;;11.20;99.90;;;;;;5034291;28;20212;-90
2022/11/02 06:35:16;;;;;;;13.60;3.00;;;11.20;99.90;;;;;;5030360;28;20551;-90
2022/11/02 06:37:43;;;;;;;15.07;2.97;;;11.20;99.90;;;;;;5030230;28;20211;-91
2022/11/02 06:40:11;;;;;;;13.60;2.77;;;11.10;99.90;;;;;;5021996;28;20220;-90
2022/11/02 06:42:38;;;;;;;15.00;2.70;;;11.10;99.90;;;;;;5031751;28;20231;-90
2022/11/02 06:45:05;;;;;;;15.23;3.33;;;11.10;99.90;;;;;;5033996;28;20207;-89
2022/11/02 06:47:34;;;;;;;14.57;2.70;;;11.00;99.90;;;;;;5020616;28;20204;-90
2022/11/02 06:50:02;;;;;;;9.30;2.93;;;11.00;99.90;;;;;;5016536;28;20233;-91
2022/11/02 06:52:29;;;;;;;11.50;2.70;;;10.90;99.90;;;;;;5033714;28;20206;-90
2022/11/02 06:54:56;;;;;;;15.43;3.00;;;10.90;99.90;;;;;;5033518;28;20686;-90
2022/11/02 06:57:23;;;;;;;15.30;3.10;;;11.00;99.90;;;;;;5033141;28;20196;-90
2022/11/02 06:59:50;;;;;;;16.53;3.23;;;10.90;99.90;;;;;;5033650;28;20214;-91
2022/11/02 07:02:17;;;;;;;12.47;2.73;;;10.90;99.90;;;;;;5033286;28;20224;-92
2022/11/02 07:04:45;;;;;;;12.00;3.23;;;10.80;99.90;;;;;;5032862;28;20203;-91
2022/11/02 07:07:11;;;;;;;12.43;3.03;;;10.80;99.90;;;;;;5033726;28;20207;-91
2022/11/02 07:09:39;;;;;;;15.53;3.23;;;10.90;99.90;;;;;;5033257;28;20208;-91
2022/11/02 07:12:06;;;;;;;8.33;2.30;;;10.90;99.90;;;;;;5032909;28;20219;-90
2022/11/02 07:14:34;;;;;;;13.87;3.10;;;10.90;99.90;;;;;;5033529;28;20203;-89
2022/11/02 07:17:00;;;;;;;20.27;3.17;;;10.90;99.90;;;;;;5046339;28;20757;-90
2022/11/02 07:19:28;;;;;;;13.47;3.33;;;10.90;99.90;;;;;;5040377;28;20215;-90
2022/11/02 07:21:57;;;;;;;13.67;3.33;;;10.90;99.90;;;;;;5036464;28;20200;-90
2022/11/02 07:24:24;;;;;;;15.73;2.93;;;11.00;99.90;;;;;;5036919;28;20204;-90
2022/11/02 07:26:51;;;;;;;18.50;3.67;;;11.00;99.90;;;;;;5033882;28;20203;-91
2022/11/02 07:29:20;;;;;;;10.53;3.03;;;10.90;99.90;;;;;;5019358;28;20208;-91
2022/11/02 07:31:49;;;;;;;15.87;2.90;;;10.90;99.90;;;;;;5036941;28;20234;-91
2022/11/02 07:34:23;;;;;;;14.40;3.90;;;10.90;99.90;;;;;;5036868;28;20547;-92
2022/11/02 07:36:51;;;;;;;17.87;4.17;;;10.90;99.90;;;;;;5050849;28;20218;-89
2022/11/02 07:39:20;;;;;;;15.47;3.67;;;10.90;99.90;;;;;;5036193;28;20225;-88
2022/11/02 07:41:47;;;;;;;18.67;5.07;;;11.10;99.90;;;;;;5036080;28;20203;-88
2022/11/02 07:44:13;;;;;;;21.63;4.63;;;11.00;99.90;;;;;;5027811;28;20239;-88
2022/11/02 07:46:42;;;;;;;13.93;3.50;;;11.20;99.90;;;;;;5036509;28;20194;-91
2022/11/02 07:49:12;;;;;;;13.70;3.20;;;11.30;99.90;;;;;;5036510;28;20208;-89
2022/11/02 07:51:39;;;;;;;17.97;2.90;;;11.30;99.90;;;;;;5035701;28;20204;-88
2022/11/02 07:54:05;;;;;;;14.50;3.13;;;11.30;99.90;;;;;;5036028;28;20200;-88
2022/11/02 07:56:34;;;;;;;11.83;2.97;;;11.30;99.90;;;;;;5036355;28;20579;-90
2022/11/02 07:59:00;;;;;;;16.97;3.47;;;11.40;99.90;;;;;;5036196;28;20215;-91
2022/11/02 08:01:27;;;;;;;19.07;4.10;;;11.40;99.90;;;;;;5035930;28;20640;-88
2022/11/02 08:03:55;;;;;;;17.00;3.53;;;11.50;99.90;;;;;;5035519;28;20235;-89
2022/11/02 08:06:22;;;;;;;11.70;2.80;;;11.60;99.90;;;;;;5035907;28;20224;-91
2022/11/02 08:08:49;;;;;;;13.90;3.37;;;11.50;99.90;;;;;;5035430;28;20209;-90
2022/11/02 08:11:16;;;;;;;16.07;3.30;;;11.50;99.90;;;;;;5035589;28;20208;-88
2022/11/02 08:13:44;;;;;;;14.17;3.47;;;11.60;99.90;;;;;;5035442;28;20200;-91
2022/11/02 08:16:10;;;;;;;14.63;3.23;;;11.60;99.90;;;;;;5035885;28;20216;-88
2022/11/02 08:18:37;;;;;;;14.90;3.53;;;11.60;99.90;;;;;;5035442;28;20212;-91
2022/11/02 08:21:05;;;;;;;15.83;3.83;;;11.60;99.90;;;;;;5035930;28;20230;-89
2022/11/02 08:23:34;;;;;;;12.60;2.83;;;11.50;99.90;;;;;;5035551;28;20608;-89
2022/11/02 08:26:01;;;;;;;19.40;3.17;;;11.50;99.90;;;;;;5036025;28;20207;-90
2022/11/02 08:28:31;;;;;;;15.63;2.87;;;11.50;99.90;;;;;;5034203;28;20200;-90
2022/11/02 08:30:59;;;;;;;18.30;3.83;;;11.60;99.90;;;;;;5035348;28;20212;-89
2022/11/02 08:33:26;;;;;;;16.87;3.33;;;11.70;99.90;;;;;;5035499;28;20193;-89
2022/11/02 08:35:55;;;;;;;15.27;3.30;;;11.70;99.90;;;;;;5035379;28;20208;-89
2022/11/02 08:38:23;;;;;;;10.03;3.43;;;11.70;99.90;;;;;;5034480;28;20212;-89
2022/11/02 08:40:52;;;;;;;17.30;3.93;;;11.70;99.90;;;;;;5035016;28;20206;-90
2022/11/02 08:43:19;;;;;;;13.63;3.57;;;11.70;99.90;;;;;;5035888;28;20235;-90
2022/11/02 08:45:45;;;;;;;18.10;3.30;;;11.60;99.90;;;;;;5035829;28;20647;-90
2022/11/02 08:48:14;;;;;;;20.97;4.13;;;11.70;99.90;;;;;;5035285;28;20208;-89
2022/11/02 08:50:41;;;;;;;22.50;4.60;;;11.60;99.90;;;;;;5035062;28;20212;-89
2022/11/02 08:53:09;;;;;;;20.27;4.50;;;11.70;99.90;;;;;;5034780;28;20210;-88
2022/11/02 08:55:36;;;;;;;18.17;3.47;;;11.70;99.90;;;;;;5035463;28;20219;-90
2022/11/02 08:58:03;;;;;;;15.37;3.40;;;11.70;99.90;;;;;;5035380;28;20208;-90
2022/11/02 09:00:31;;;;;;;19.33;4.68;;;11.70;99.90;;;;;;5034276;28;20443;-90
2022/11/02 09:03:00;;;;;;;17.20;3.40;;;11.80;99.90;;;;;;5034850;28;20237;-90
2022/11/02 09:05:28;;;;;;;23.30;4.00;;;11.90;99.90;;;;;;5034881;28;20199;-90
2022/11/02 09:07:56;;;;;;;17.73;4.73;;;12.00;99.90;;;;;;5034806;28;20649;-91
2022/11/02 09:10:23;;;;;;;13.27;3.93;;;12.10;99.90;;;;;;5034923;28;20208;-92
2022/11/02 09:12:50;;;;;;;18.40;3.97;;;12.10;99.90;;;;;;5031994;28;20652;-86
2022/11/02 09:15:17;;;;;;;10.97;3.37;;;12.20;99.90;;;;;;5033170;28;20209;-86
2022/11/02 09:17:46;;;;;;;20.60;4.73;;;12.30;99.90;;;;;;5034283;28;20237;-84
2022/11/02 09:20:15;;;;;;;20.73;3.57;;;12.30;99.90;;;;;;5033958;28;20213;-85
2022/11/02 09:22:44;;;;;;;18.47;3.67;;;12.40;99.90;;;;;;5031308;28;20233;-84
2022/11/02 09:25:12;;;;;;;17.17;3.40;;;12.40;99.90;;;;;;5034211;28;20217;-83
2022/11/02 09:27:40;;;;;;;23.07;3.67;;;12.50;99.90;;;;;;5034375;28;20205;-84
2022/11/02 09:30:08;;;;;;;19.43;4.03;;;12.60;99.90;;;;;;5033714;28;20205;-83
2022/11/02 09:32:35;;;;;;;19.48;3.70;;;12.60;99.90;;;;;;5034049;28;20403;-89
2022/11/02 09:35:04;;;;;;;16.43;3.53;;;12.70;99.90;;;;;;5033852;28;20205;-82
2022/11/02 09:37:31;;;;;;;16.30;3.70;;;12.70;99.90;;;;;;5033970;28;20301;-85
2022/11/02 09:40:00;;;;;;;15.00;2.87;;;12.80;99.90;;;;;;5033891;28;20195;-83
2022/11/02 09:42:35;;;;;;;16.30;3.33;;;12.80;99.90;;;;;;5034117;28;20210;-85
2022/11/02 09:45:06;;;;;;;17.07;3.70;;;12.80;99.90;;;;;;5034659;28;20261;-83
2022/11/02 09:47:41;;;;;;;17.07;3.60;;;12.80;99.90;;;;;;5034710;28;20207;-83
2022/11/02 09:50:13;;;;;;;15.27;3.80;;;12.90;99.90;;;;;;5034163;28;20199;-83
2022/11/02 09:52:42;;;;;;;14.77;4.17;;;12.90;99.90;;;;;;5034113;28;20217;-83
2022/11/02 09:55:17;;;;;;;16.97;3.73;;;13.00;99.90;;;;;;5034012;28;20209;-83
2022/11/02 09:57:48;;;;;;;20.37;3.87;;;13.00;99.90;;;;;;5033975;28;20191;-83
2022/11/02 10:00:17;;;;;;;17.93;3.37;;;13.10;99.90;;;;;;5034143;28;20203;-84
2022/11/02 10:02:55;;;;;;;18.93;3.50;;;13.00;99.90;;;;;;5033693;28;20215;-84
2022/11/02 10:05:32;;;;;;;14.10;3.80;;;12.90;99.90;;;;;;5033731;28;20209;-83
2022/11/02 10:08:10;;;;;;;14.23;3.50;;;13.10;99.90;;;;;;5033891;28;20199;-85
2022/11/02 10:10:41;;;;;;;17.83;3.03;;;13.10;99.90;;;;;;5033818;28;20569;-87
2022/11/02 10:13:19;;;;;;;14.07;3.60;;;13.10;99.90;;;;;;5033783;28;20211;-84
2022/11/02 10:15:50;;;;;;;14.13;3.10;;;13.10;99.90;;;;;;5033319;28;20205;-87
2022/11/02 10:18:21;;;;;;;13.17;3.57;;;13.10;99.90;;;;;;5030461;28;20244;-86
2022/11/02 10:20:51;;;;;;;14.27;3.20;;;13.20;99.90;;;;;;5032793;28;20681;-84
2022/11/02 10:23:30;;;;;;;20.93;4.00;;;13.20;99.90;;;;;;5033376;28;20233;-84
2022/11/02 10:25:59;;;;;;;13.03;3.40;;;13.30;99.90;;;;;;5033539;28;20202;-84
2022/11/02 10:28:31;;;;;;;16.73;4.13;;;13.30;99.90;;;;;;5033616;28;20532;-85
2022/11/02 10:30:58;;;;;;;15.33;2.90;;;13.40;99.90;;;;;;5033220;28;20562;-84
2022/11/02 10:33:27;;;;;;;16.20;2.87;;;13.50;99.90;;;;;;5033379;28;20211;-84
2022/11/02 10:36:10;;;;;;;13.10;2.93;;;13.60;99.90;;;;;;5033016;28;20199;-84
2022/11/02 10:38:44;;;;;;;17.40;3.23;;;13.70;99.90;;;;;;5030478;28;20206;-86
2022/11/02 10:41:23;;;;;;;19.63;4.00;;;13.70;99.90;;;;;;5032968;28;20217;-86
2022/11/02 10:44:03;;;;;;;13.33;3.17;;;13.70;99.90;;;;;;5033340;28;20231;-85
2022/11/02 10:46:43;;;;;;;16.57;3.70;;;13.70;99.90;;;;;;5032626;28;20203;-84
2022/11/02 10:49:18;;;;;;;16.07;3.47;;;13.80;99.90;;;;;;5030224;28;20187;-87
2022/11/02 10:51:45;;;;;;;11.20;2.63;;;13.80;99.90;;;;;;5035061;28;20213;-84
2022/11/02 10:54:13;;;;;;;13.73;2.57;;;13.80;99.90;;;;;;5034562;28;20199;-84
2022/11/02 10:56:45;;;;;;;15.93;3.63;;;13.80;99.90;;;;;;5037231;28;20337;-84
2022/11/02 10:59:14;;;;;;;17.40;3.87;;;13.80;99.90;;;;;;5036912;28;20199;-87
2022/11/02 11:01:47;;;;;;;25.43;3.23;;;13.80;99.90;;;;;;5037138;28;20210;-88
2022/11/02 11:04:21;;;;;;;18.50;4.37;;;13.90;99.90;;;;;;5037078;28;20219;-88
2022/11/02 11:06:48;;;;;;;13.07;2.80;;;14.00;99.90;;;;;;5034970;28;20202;-90
2022/11/02 11:09:17;;;;;;;17.67;3.30;;;13.90;99.90;;;;;;5037384;28;20253;-89
2022/11/02 11:11:55;;;;;;;14.47;3.23;;;13.90;99.90;;;;;;5037310;28;20203;-90
2022/11/02 11:14:25;;;;;;;13.53;3.53;;;14.00;99.90;;;;;;5037405;28;20203;-89
2022/11/02 11:16:53;;;;;;;13.83;3.10;;;14.00;99.90;;;;;;5036564;28;20230;-89
2022/11/02 11:19:23;;;;;;;14.37;3.10;;;14.00;99.90;;;;;;5019465;28;20580;-89
2022/11/02 11:21:51;;;;;;;13.60;3.00;;;13.90;99.90;;;;;;5036997;28;20666;-89
2022/11/02 11:24:23;;;;;;;16.40;3.10;;;14.00;99.90;;;;;;5036811;28;20227;-90
2022/11/02 11:27:14;;;;;;;13.53;3.13;;;13.90;99.90;;;;;;5036801;28;20662;-91
2022/11/02 11:29:53;;;;;;;11.47;3.30;;;13.90;99.90;;;;;;5037152;28;20211;-89
2022/11/02 11:32:22;;;;;;;10.73;3.13;;;14.00;99.90;;;;;;5036456;28;20206;-88
2022/11/02 11:34:56;;;;;;;14.07;2.90;;;14.10;99.90;;;;;;5037161;28;20214;-89
2022/11/02 11:37:23;;;;;;;14.40;3.30;;;14.20;99.90;;;;;;5036881;28;20662;-89
2022/11/02 11:39:54;;;;;;;14.93;3.20;;;14.20;99.90;;;;;;5037138;28;20191;-89
2022/11/02 11:42:24;;;;;;;18.80;3.70;;;14.30;99.90;;;;;;5036283;28;20906;-89
2022/11/02 11:44:57;;;;;;;16.50;3.07;;;14.50;99.90;;;;;;5037108;28;20246;-89
2022/11/02 11:47:30;;;;;;;13.23;2.70;;;14.60;99.90;;;;;;5036468;28;20207;-89
2022/11/02 11:50:01;;;;;;;13.73;3.10;;;14.60;99.90;;;;;;5036854;28;20199;-90
2022/11/02 11:52:29;;;;;;;11.50;2.93;;;14.70;99.90;;;;;;5036598;28;20199;-89
2022/11/02 11:54:57;;;;;;;14.67;3.23;;;14.60;99.90;;;;;;5036652;28;20207;-90
2022/11/02 11:57:30;;;;;;;15.53;3.10;;;14.70;99.90;;;;;;5036644;28;20689;-90
2022/11/02 12:00:00;;;;;;;9.03;2.20;;;14.70;99.90;;;;;;5036449;28;20204;-90
2022/11/02 12:02:28;;;;;;;13.20;3.20;;;14.70;99.90;;;;;;5035675;28;20234;-87
2022/11/02 12:05:01;;;;;;;12.07;2.73;;;14.80;99.90;;;;;;5036007;28;20237;-88
2022/11/02 12:07:55;;;;;;;10.50;2.37;;;14.90;99.90;;;;;;5036652;28;20565;-90
2022/11/02 12:10:31;;;;;;;17.60;3.27;;;14.90;99.90;;;;;;5033057;28;20215;-89
2022/11/02 12:13:09;;;;;;;10.10;2.40;;;14.90;99.90;;;;;;5036220;28;20204;-91
2022/11/02 12:15:52;;;;;;;16.30;4.00;;;14.90;99.90;;;;;;5034869;28;20442;-90
2022/11/02 12:18:33;;;;;;;11.57;3.20;;;15.00;99.90;;;;;;5035776;28;20690;-89
2022/11/02 12:21:12;;;;;;;9.83;2.30;;;15.00;99.90;;;;;;5036122;28;20200;-88
2022/11/02 12:24:08;;;;;;;13.30;2.50;;;15.00;99.90;;;;;;5035609;28;20229;-87
2022/11/02 12:26:49;;;;;;;11.43;2.20;;;15.00;99.90;;;;;;5036292;28;20215;-87
2022/11/02 12:29:48;;;;;;;11.17;3.07;;;15.00;99.90;;;;;;5035457;28;20207;-88
2022/11/02 12:32:28;;;;;;;10.70;2.40;;;15.00;99.90;;;;;;5022110;28;20210;-88
2022/11/02 12:35:08;;;;;;;9.00;2.30;;;15.00;99.90;;;;;;5035712;28;20206;-88
2022/11/02 12:37:49;;;;;;;10.00;2.60;;;15.10;99.90;;;;;;5035900;28;20215;-90
2022/11/02 12:40:25;;;;;;;14.73;2.90;;;15.10;99.90;;;;;;5035791;28;20212;-89
2022/11/02 12:42:57;;;;;;;16.67;3.20;;;15.20;99.90;;;;;;5035521;28;20205;-88
2022/11/02 12:45:39;;;;;;;8.83;3.40;;;15.30;99.90;;;;;;5035065;28;20658;-87
2022/11/02 12:48:08;;;;;;;15.38;3.60;;;15.40;99.90;;;;;;5034293;28;20438;-87
2022/11/02 12:50:50;;;;;;;11.77;2.70;;;15.40;99.90;;;;;;5035748;28;20208;-91
2022/11/02 12:53:34;;;;;;;10.60;2.60;;;15.30;99.90;;;;;;5035404;28;20212;-88
2022/11/02 12:56:03;;;;;;;12.97;2.53;;;15.30;99.90;;;;;;5035535;28;20196;-87
2022/11/02 12:58:33;;;;;;;10.53;2.67;;;15.30;99.90;;;;;;5034777;28;20204;-90
2022/11/02 13:01:08;;;;;;;15.80;3.13;;;15.30;99.90;;;;;;5035397;28;20670;-88
2022/11/02 13:03:43;;;;;;;11.90;2.50;;;15.30;99.90;;;;;;5034838;28;20786;-89
2022/11/02 13:06:15;;;;;;;8.30;2.33;;;15.30;99.90;;;;;;5035270;28;20227;-88
2022/11/02 13:08:46;;;;;;;11.77;2.97;;;15.30;99.90;;;;;;5034981;28;20208;-87